sensor_id;sensor_type;location;lat;lon;timestamp;P1;durP1;ratioP1;P2;durP2;ratioP2
20441;SDS011;10380;52.102;20.614;2023-04-16T00:01:38;7.53;;;4.90;;
20441;SDS011;10380;52.102;20.614;2023-04-16T00:04:06;6.17;;;4.90;;
20441;SDS011;10380;52.102;20.614;2023-04-16T00:06:33;6.67;;;5.57;;
20441;SDS011;10380;52.102;20.614;2023-04-16T00:09:00;6.73;;;4.80;;
20441;SDS011;10380;52.102;20.614;2023-04-16T00:11:27;7.33;;;5.57;;
20441;SDS011;10380;52.102;20.614;2023-04-16T00:13:54;7.10;;;5.60;;
20441;SDS011;10380;52.102;20.614;2023-04-16T00:16:21;7.27;;;5.57;;
20441;SDS011;10380;52.102;20.614;2023-04-16T00:18:48;7.97;;;6.17;;
20441;SDS011;10380;52.102;20.614;2023-04-16T00:21:14;7.33;;;6.23;;
20441;SDS011;10380;52.102;20.614;2023-04-16T00:23:41;6.87;;;5.57;;
20441;SDS011;10380;52.102;20.614;2023-04-16T00:26:08;7.17;;;5.97;;
20441;SDS011;10380;52.102;20.614;2023-04-16T00:28:35;8.83;;;5.57;;
20441;SDS011;10380;52.102;20.614;2023-04-16T00:31:03;8.50;;;6.10;;
20441;SDS011;10380;52.102;20.614;2023-04-16T00:33:30;8.77;;;7.07;;
20441;SDS011;10380;52.102;20.614;2023-04-16T00:35:57;7.20;;;5.70;;
20441;SDS011;10380;52.102;20.614;2023-04-16T00:38:25;7.50;;;5.97;;
20441;SDS011;10380;52.102;20.614;2023-04-16T00:40:55;8.20;;;5.73;;
20441;SDS011;10380;52.102;20.614;2023-04-16T00:43:25;7.87;;;5.47;;
20441;SDS011;10380;52.102;20.614;2023-04-16T00:45:52;7.53;;;5.40;;
20441;SDS011;10380;52.102;20.614;2023-04-16T00:48:26;6.27;;;5.63;;
20441;SDS011;10380;52.102;20.614;2023-04-16T00:50:53;9.07;;;7.67;;
20441;SDS011;10380;52.102;20.614;2023-04-16T00:53:21;7.00;;;6.03;;
20441;SDS011;10380;52.102;20.614;2023-04-16T00:55:49;6.60;;;5.87;;
20441;SDS011;10380;52.102;20.614;2023-04-16T00:58:17;7.83;;;5.97;;
20441;SDS011;10380;52.102;20.614;2023-04-16T01:00:44;6.83;;;5.93;;
20441;SDS011;10380;52.102;20.614;2023-04-16T01:03:10;6.43;;;5.67;;
20441;SDS011;10380;52.102;20.614;2023-04-16T01:05:38;6.77;;;5.80;;
20441;SDS011;10380;52.102;20.614;2023-04-16T01:08:05;7.13;;;6.40;;
20441;SDS011;10380;52.102;20.614;2023-04-16T01:10:32;8.30;;;6.77;;
20441;SDS011;10380;52.102;20.614;2023-04-16T01:12:59;8.20;;;6.47;;
20441;SDS011;10380;52.102;20.614;2023-04-16T01:15:26;9.23;;;6.27;;
20441;SDS011;10380;52.102;20.614;2023-04-16T01:17:53;6.97;;;6.23;;
20441;SDS011;10380;52.102;20.614;2023-04-16T01:20:20;8.20;;;6.70;;
20441;SDS011;10380;52.102;20.614;2023-04-16T01:22:47;6.97;;;5.90;;
20441;SDS011;10380;52.102;20.614;2023-04-16T01:25:15;7.53;;;6.37;;
20441;SDS011;10380;52.102;20.614;2023-04-16T01:27:43;8.07;;;7.20;;
20441;SDS011;10380;52.102;20.614;2023-04-16T01:30:10;9.20;;;7.10;;
20441;SDS011;10380;52.102;20.614;2023-04-16T01:32:37;9.50;;;6.40;;
20441;SDS011;10380;52.102;20.614;2023-04-16T01:35:04;8.90;;;6.60;;
20441;SDS011;10380;52.102;20.614;2023-04-16T01:37:32;8.60;;;6.73;;
20441;SDS011;10380;52.102;20.614;2023-04-16T01:39:59;7.67;;;6.87;;
20441;SDS011;10380;52.102;20.614;2023-04-16T01:42:26;7.10;;;6.20;;
20441;SDS011;10380;52.102;20.614;2023-04-16T01:44:53;9.00;;;6.87;;
20441;SDS011;10380;52.102;20.614;2023-04-16T01:47:20;8.30;;;6.77;;
20441;SDS011;10380;52.102;20.614;2023-04-16T01:49:47;8.07;;;6.70;;
20441;SDS011;10380;52.102;20.614;2023-04-16T01:52:14;6.50;;;5.80;;
20441;SDS011;10380;52.102;20.614;2023-04-16T01:54:41;8.17;;;6.40;;
20441;SDS011;10380;52.102;20.614;2023-04-16T01:57:08;7.67;;;6.43;;
20441;SDS011;10380;52.102;20.614;2023-04-16T01:59:35;7.77;;;6.97;;
20441;SDS011;10380;52.102;20.614;2023-04-16T02:02:10;7.63;;;6.53;;
20441;SDS011;10380;52.102;20.614;2023-04-16T02:04:39;7.57;;;6.30;;
20441;SDS011;10380;52.102;20.614;2023-04-16T02:07:07;8.47;;;6.77;;
20441;SDS011;10380;52.102;20.614;2023-04-16T02:09:35;7.93;;;6.17;;
20441;SDS011;10380;52.102;20.614;2023-04-16T02:12:03;8.80;;;6.17;;
20441;SDS011;10380;52.102;20.614;2023-04-16T02:14:30;10.73;;;7.23;;
20441;SDS011;10380;52.102;20.614;2023-04-16T02:16:58;8.47;;;6.87;;
20441;SDS011;10380;52.102;20.614;2023-04-16T02:19:26;9.67;;;6.60;;
20441;SDS011;10380;52.102;20.614;2023-04-16T02:21:53;8.40;;;7.00;;
20441;SDS011;10380;52.102;20.614;2023-04-16T02:24:20;7.53;;;6.53;;
20441;SDS011;10380;52.102;20.614;2023-04-16T02:26:47;8.70;;;6.97;;
20441;SDS011;10380;52.102;20.614;2023-04-16T02:29:14;11.47;;;7.30;;
20441;SDS011;10380;52.102;20.614;2023-04-16T02:31:41;8.97;;;7.47;;
20441;SDS011;10380;52.102;20.614;2023-04-16T02:34:08;10.57;;;7.37;;
20441;SDS011;10380;52.102;20.614;2023-04-16T02:36:35;10.97;;;7.73;;
20441;SDS011;10380;52.102;20.614;2023-04-16T02:39:02;9.90;;;7.73;;
20441;SDS011;10380;52.102;20.614;2023-04-16T02:41:30;9.90;;;7.97;;
20441;SDS011;10380;52.102;20.614;2023-04-16T02:43:57;9.03;;;8.07;;
20441;SDS011;10380;52.102;20.614;2023-04-16T02:46:24;9.70;;;7.40;;
20441;SDS011;10380;52.102;20.614;2023-04-16T02:48:51;9.13;;;7.40;;
20441;SDS011;10380;52.102;20.614;2023-04-16T02:51:18;10.40;;;7.53;;
20441;SDS011;10380;52.102;20.614;2023-04-16T02:53:45;9.50;;;8.20;;
20441;SDS011;10380;52.102;20.614;2023-04-16T02:56:12;11.33;;;8.80;;
20441;SDS011;10380;52.102;20.614;2023-04-16T02:58:39;8.70;;;7.70;;
20441;SDS011;10380;52.102;20.614;2023-04-16T03:01:06;9.20;;;7.90;;
20441;SDS011;10380;52.102;20.614;2023-04-16T03:03:33;10.33;;;8.60;;
20441;SDS011;10380;52.102;20.614;2023-04-16T03:06:00;11.53;;;9.03;;
20441;SDS011;10380;52.102;20.614;2023-04-16T03:08:26;10.93;;;9.63;;
20441;SDS011;10380;52.102;20.614;2023-04-16T03:10:54;12.17;;;9.83;;
20441;SDS011;10380;52.102;20.614;2023-04-16T03:13:20;12.73;;;9.30;;
20441;SDS011;10380;52.102;20.614;2023-04-16T03:15:48;13.33;;;10.13;;
20441;SDS011;10380;52.102;20.614;2023-04-16T03:18:15;11.73;;;10.53;;
20441;SDS011;10380;52.102;20.614;2023-04-16T03:20:42;12.60;;;9.63;;
20441;SDS011;10380;52.102;20.614;2023-04-16T03:23:09;13.93;;;9.93;;
20441;SDS011;10380;52.102;20.614;2023-04-16T03:25:37;14.07;;;11.53;;
20441;SDS011;10380;52.102;20.614;2023-04-16T03:28:05;17.90;;;11.83;;
20441;SDS011;10380;52.102;20.614;2023-04-16T03:30:33;14.67;;;11.77;;
20441;SDS011;10380;52.102;20.614;2023-04-16T03:33:00;14.57;;;12.13;;
20441;SDS011;10380;52.102;20.614;2023-04-16T03:35:27;15.80;;;12.57;;
20441;SDS011;10380;52.102;20.614;2023-04-16T03:37:54;20.77;;;12.27;;
20441;SDS011;10380;52.102;20.614;2023-04-16T03:40:21;17.93;;;13.27;;
20441;SDS011;10380;52.102;20.614;2023-04-16T03:42:48;25.07;;;18.90;;
20441;SDS011;10380;52.102;20.614;2023-04-16T03:45:15;24.53;;;17.47;;
20441;SDS011;10380;52.102;20.614;2023-04-16T03:47:42;18.60;;;13.53;;
20441;SDS011;10380;52.102;20.614;2023-04-16T03:50:09;15.47;;;13.00;;
20441;SDS011;10380;52.102;20.614;2023-04-16T03:52:37;14.70;;;11.93;;
20441;SDS011;10380;52.102;20.614;2023-04-16T03:55:04;17.50;;;13.10;;
20441;SDS011;10380;52.102;20.614;2023-04-16T03:57:31;17.00;;;13.07;;
20441;SDS011;10380;52.102;20.614;2023-04-16T03:59:58;17.73;;;13.17;;
20441;SDS011;10380;52.102;20.614;2023-04-16T04:02:25;15.87;;;12.30;;
20441;SDS011;10380;52.102;20.614;2023-04-16T04:04:52;17.80;;;12.63;;
20441;SDS011;10380;52.102;20.614;2023-04-16T04:07:19;14.80;;;12.80;;
20441;SDS011;10380;52.102;20.614;2023-04-16T04:09:46;15.80;;;13.10;;
20441;SDS011;10380;52.102;20.614;2023-04-16T04:12:13;14.73;;;11.67;;
20441;SDS011;10380;52.102;20.614;2023-04-16T04:14:40;19.63;;;13.47;;
20441;SDS011;10380;52.102;20.614;2023-04-16T04:17:07;17.37;;;13.47;;
20441;SDS011;10380;52.102;20.614;2023-04-16T04:19:34;15.43;;;13.17;;
20441;SDS011;10380;52.102;20.614;2023-04-16T04:22:04;15.13;;;12.97;;
20441;SDS011;10380;52.102;20.614;2023-04-16T04:24:30;17.20;;;12.90;;
20441;SDS011;10380;52.102;20.614;2023-04-16T04:26:57;18.63;;;13.37;;
20441;SDS011;10380;52.102;20.614;2023-04-16T04:29:24;15.97;;;12.33;;
20441;SDS011;10380;52.102;20.614;2023-04-16T04:31:51;17.27;;;13.47;;
20441;SDS011;10380;52.102;20.614;2023-04-16T04:34:18;16.67;;;13.33;;
20441;SDS011;10380;52.102;20.614;2023-04-16T04:36:46;17.67;;;13.80;;
20441;SDS011;10380;52.102;20.614;2023-04-16T04:39:12;16.23;;;12.80;;
20441;SDS011;10380;52.102;20.614;2023-04-16T04:41:39;17.30;;;12.47;;
20441;SDS011;10380;52.102;20.614;2023-04-16T04:44:06;21.03;;;13.60;;
20441;SDS011;10380;52.102;20.614;2023-04-16T04:46:33;14.70;;;13.00;;
20441;SDS011;10380;52.102;20.614;2023-04-16T04:49:00;15.57;;;13.07;;
20441;SDS011;10380;52.102;20.614;2023-04-16T04:51:27;20.77;;;13.53;;
20441;SDS011;10380;52.102;20.614;2023-04-16T04:53:55;15.97;;;12.60;;
20441;SDS011;10380;52.102;20.614;2023-04-16T04:56:22;16.63;;;12.37;;
20441;SDS011;10380;52.102;20.614;2023-04-16T04:58:49;16.87;;;13.60;;
20441;SDS011;10380;52.102;20.614;2023-04-16T05:01:16;18.47;;;13.00;;
20441;SDS011;10380;52.102;20.614;2023-04-16T05:03:43;17.40;;;13.37;;
20441;SDS011;10380;52.102;20.614;2023-04-16T05:06:11;16.77;;;13.90;;
20441;SDS011;10380;52.102;20.614;2023-04-16T05:08:38;14.57;;;11.53;;
20441;SDS011;10380;52.102;20.614;2023-04-16T05:11:05;17.33;;;11.83;;
20441;SDS011;10380;52.102;20.614;2023-04-16T05:13:32;19.03;;;12.73;;
20441;SDS011;10380;52.102;20.614;2023-04-16T05:15:58;16.43;;;13.23;;
20441;SDS011;10380;52.102;20.614;2023-04-16T05:18:26;14.97;;;12.13;;
20441;SDS011;10380;52.102;20.614;2023-04-16T05:20:53;19.87;;;13.07;;
20441;SDS011;10380;52.102;20.614;2023-04-16T05:23:20;25.53;;;16.40;;
20441;SDS011;10380;52.102;20.614;2023-04-16T05:25:46;20.13;;;14.63;;
20441;SDS011;10380;52.102;20.614;2023-04-16T05:28:13;16.43;;;12.87;;
20441;SDS011;10380;52.102;20.614;2023-04-16T05:30:40;17.83;;;12.93;;
20441;SDS011;10380;52.102;20.614;2023-04-16T05:33:07;13.40;;;10.27;;
20441;SDS011;10380;52.102;20.614;2023-04-16T05:35:34;15.20;;;12.50;;
20441;SDS011;10380;52.102;20.614;2023-04-16T05:38:01;16.83;;;12.07;;
20441;SDS011;10380;52.102;20.614;2023-04-16T05:40:30;14.27;;;11.53;;
20441;SDS011;10380;52.102;20.614;2023-04-16T05:42:57;14.27;;;11.80;;
20441;SDS011;10380;52.102;20.614;2023-04-16T05:45:23;13.37;;;10.47;;
20441;SDS011;10380;52.102;20.614;2023-04-16T05:47:53;15.17;;;11.27;;
20441;SDS011;10380;52.102;20.614;2023-04-16T05:50:20;13.67;;;11.10;;
20441;SDS011;10380;52.102;20.614;2023-04-16T05:52:47;14.30;;;10.13;;
20441;SDS011;10380;52.102;20.614;2023-04-16T05:55:14;12.37;;;10.23;;
20441;SDS011;10380;52.102;20.614;2023-04-16T05:57:42;11.17;;;9.70;;
20441;SDS011;10380;52.102;20.614;2023-04-16T06:00:09;14.20;;;11.53;;
20441;SDS011;10380;52.102;20.614;2023-04-16T06:02:36;12.70;;;9.77;;
20441;SDS011;10380;52.102;20.614;2023-04-16T06:05:03;13.47;;;11.00;;
20441;SDS011;10380;52.102;20.614;2023-04-16T06:07:30;12.47;;;10.57;;
20441;SDS011;10380;52.102;20.614;2023-04-16T06:09:57;12.17;;;9.80;;
20441;SDS011;10380;52.102;20.614;2023-04-16T06:12:24;13.20;;;9.83;;
20441;SDS011;10380;52.102;20.614;2023-04-16T06:14:51;10.97;;;9.53;;
20441;SDS011;10380;52.102;20.614;2023-04-16T06:17:18;13.73;;;10.10;;
20441;SDS011;10380;52.102;20.614;2023-04-16T06:19:46;12.50;;;9.57;;
20441;SDS011;10380;52.102;20.614;2023-04-16T06:22:13;11.90;;;9.10;;
20441;SDS011;10380;52.102;20.614;2023-04-16T06:24:40;10.47;;;8.63;;
20441;SDS011;10380;52.102;20.614;2023-04-16T06:27:08;12.20;;;8.90;;
20441;SDS011;10380;52.102;20.614;2023-04-16T06:29:35;10.13;;;8.37;;
20441;SDS011;10380;52.102;20.614;2023-04-16T06:32:07;11.23;;;8.53;;
20441;SDS011;10380;52.102;20.614;2023-04-16T06:34:33;9.03;;;8.00;;
20441;SDS011;10380;52.102;20.614;2023-04-16T06:37:01;9.70;;;7.93;;
20441;SDS011;10380;52.102;20.614;2023-04-16T06:39:27;12.27;;;8.73;;
20441;SDS011;10380;52.102;20.614;2023-04-16T06:41:54;9.13;;;8.13;;
20441;SDS011;10380;52.102;20.614;2023-04-16T06:44:21;10.97;;;8.13;;
20441;SDS011;10380;52.102;20.614;2023-04-16T06:46:49;10.90;;;9.10;;
20441;SDS011;10380;52.102;20.614;2023-04-16T06:49:16;10.63;;;9.07;;
20441;SDS011;10380;52.102;20.614;2023-04-16T06:51:43;10.30;;;7.30;;
20441;SDS011;10380;52.102;20.614;2023-04-16T06:54:10;9.90;;;8.20;;
20441;SDS011;10380;52.102;20.614;2023-04-16T06:56:37;8.47;;;7.57;;
20441;SDS011;10380;52.102;20.614;2023-04-16T06:59:04;8.27;;;6.93;;
20441;SDS011;10380;52.102;20.614;2023-04-16T07:01:31;8.70;;;7.23;;
20441;SDS011;10380;52.102;20.614;2023-04-16T07:03:58;9.53;;;7.50;;
20441;SDS011;10380;52.102;20.614;2023-04-16T07:06:25;13.57;;;8.87;;
20441;SDS011;10380;52.102;20.614;2023-04-16T07:08:53;8.33;;;7.40;;
20441;SDS011;10380;52.102;20.614;2023-04-16T07:11:19;9.47;;;8.03;;
20441;SDS011;10380;52.102;20.614;2023-04-16T07:13:47;8.43;;;6.90;;
20441;SDS011;10380;52.102;20.614;2023-04-16T07:16:16;13.90;;;8.93;;
20441;SDS011;10380;52.102;20.614;2023-04-16T07:18:43;10.33;;;7.87;;
20441;SDS011;10380;52.102;20.614;2023-04-16T07:21:10;11.40;;;8.32;;
20441;SDS011;10380;52.102;20.614;2023-04-16T07:23:37;8.82;;;6.90;;
20441;SDS011;10380;52.102;20.614;2023-04-16T07:26:03;8.23;;;7.33;;
20441;SDS011;10380;52.102;20.614;2023-04-16T07:28:31;7.63;;;6.73;;
20441;SDS011;10380;52.102;20.614;2023-04-16T07:30:57;8.27;;;7.07;;
20441;SDS011;10380;52.102;20.614;2023-04-16T07:33:25;10.57;;;7.37;;
20441;SDS011;10380;52.102;20.614;2023-04-16T07:35:52;7.63;;;6.45;;
20441;SDS011;10380;52.102;20.614;2023-04-16T07:38:19;7.87;;;7.13;;
20441;SDS011;10380;52.102;20.614;2023-04-16T07:40:46;8.93;;;6.53;;
20441;SDS011;10380;52.102;20.614;2023-04-16T07:43:13;8.27;;;7.43;;
20441;SDS011;10380;52.102;20.614;2023-04-16T07:45:41;7.43;;;6.63;;
20441;SDS011;10380;52.102;20.614;2023-04-16T07:48:08;7.82;;;6.82;;
20441;SDS011;10380;52.102;20.614;2023-04-16T07:50:35;9.70;;;7.27;;
20441;SDS011;10380;52.102;20.614;2023-04-16T07:53:01;7.90;;;6.80;;
20441;SDS011;10380;52.102;20.614;2023-04-16T07:55:28;8.97;;;7.30;;
20441;SDS011;10380;52.102;20.614;2023-04-16T07:57:55;7.27;;;6.50;;
20441;SDS011;10380;52.102;20.614;2023-04-16T08:00:22;8.45;;;7.55;;
20441;SDS011;10380;52.102;20.614;2023-04-16T08:02:49;8.20;;;7.40;;
20441;SDS011;10380;52.102;20.614;2023-04-16T08:05:16;8.23;;;7.38;;
20441;SDS011;10380;52.102;20.614;2023-04-16T08:07:43;8.70;;;7.37;;
20441;SDS011;10380;52.102;20.614;2023-04-16T08:10:10;9.93;;;8.03;;
20441;SDS011;10380;52.102;20.614;2023-04-16T08:12:37;7.77;;;6.87;;
20441;SDS011;10380;52.102;20.614;2023-04-16T08:15:04;9.53;;;7.43;;
20441;SDS011;10380;52.102;20.614;2023-04-16T08:17:31;10.13;;;6.97;;
20441;SDS011;10380;52.102;20.614;2023-04-16T08:19:59;7.87;;;6.47;;
20441;SDS011;10380;52.102;20.614;2023-04-16T08:22:26;7.22;;;6.32;;
20441;SDS011;10380;52.102;20.614;2023-04-16T08:24:53;8.20;;;6.65;;
20441;SDS011;10380;52.102;20.614;2023-04-16T08:27:21;9.03;;;6.77;;
20441;SDS011;10380;52.102;20.614;2023-04-16T08:29:47;7.10;;;6.40;;
20441;SDS011;10380;52.102;20.614;2023-04-16T08:32:14;8.18;;;6.32;;
20441;SDS011;10380;52.102;20.614;2023-04-16T08:34:41;18.05;;;11.88;;
20441;SDS011;10380;52.102;20.614;2023-04-16T08:37:08;9.97;;;8.40;;
20441;SDS011;10380;52.102;20.614;2023-04-16T08:39:35;7.63;;;6.78;;
20441;SDS011;10380;52.102;20.614;2023-04-16T08:42:04;8.60;;;6.20;;
20441;SDS011;10380;52.102;20.614;2023-04-16T08:44:35;9.18;;;6.35;;
20441;SDS011;10380;52.102;20.614;2023-04-16T08:47:04;6.82;;;5.68;;
20441;SDS011;10380;52.102;20.614;2023-04-16T08:49:35;7.47;;;6.28;;
20441;SDS011;10380;52.102;20.614;2023-04-16T08:52:08;6.45;;;5.85;;
20441;SDS011;10380;52.102;20.614;2023-04-16T08:57:29;8.38;;;7.57;;
20441;SDS011;10380;52.102;20.614;2023-04-16T09:00:05;8.35;;;6.82;;
20441;SDS011;10380;52.102;20.614;2023-04-16T09:02:35;6.95;;;6.35;;
20441;SDS011;10380;52.102;20.614;2023-04-16T09:05:04;6.22;;;5.68;;
20441;SDS011;10380;52.102;20.614;2023-04-16T09:07:32;6.57;;;5.35;;
20441;SDS011;10380;52.102;20.614;2023-04-16T09:09:59;7.93;;;7.13;;
20441;SDS011;10380;52.102;20.614;2023-04-16T09:12:27;7.10;;;6.45;;
20441;SDS011;10380;52.102;20.614;2023-04-16T09:14:55;6.47;;;5.85;;
20441;SDS011;10380;52.102;20.614;2023-04-16T09:17:22;9.95;;;6.80;;
20441;SDS011;10380;52.102;20.614;2023-04-16T09:19:49;6.35;;;5.50;;
20441;SDS011;10380;52.102;20.614;2023-04-16T09:22:16;8.60;;;6.25;;
20441;SDS011;10380;52.102;20.614;2023-04-16T09:24:42;6.10;;;5.38;;
20441;SDS011;10380;52.102;20.614;2023-04-16T09:27:10;6.43;;;5.65;;
20441;SDS011;10380;52.102;20.614;2023-04-16T09:29:38;5.93;;;5.32;;
20441;SDS011;10380;52.102;20.614;2023-04-16T09:32:06;5.53;;;5.03;;
20441;SDS011;10380;52.102;20.614;2023-04-16T09:34:52;6.20;;;4.85;;
20441;SDS011;10380;52.102;20.614;2023-04-16T09:37:20;6.63;;;5.15;;
20441;SDS011;10380;52.102;20.614;2023-04-16T09:40:03;5.60;;;5.10;;
20441;SDS011;10380;52.102;20.614;2023-04-16T09:42:31;6.72;;;5.75;;
20441;SDS011;10380;52.102;20.614;2023-04-16T09:44:59;5.85;;;5.05;;
20441;SDS011;10380;52.102;20.614;2023-04-16T09:47:39;6.30;;;5.10;;
20441;SDS011;10380;52.102;20.614;2023-04-16T09:50:07;7.15;;;6.22;;
20441;SDS011;10380;52.102;20.614;2023-04-16T09:52:38;6.13;;;5.13;;
20441;SDS011;10380;52.102;20.614;2023-04-16T09:55:05;5.45;;;4.93;;
20441;SDS011;10380;52.102;20.614;2023-04-16T09:57:32;7.78;;;6.03;;
20441;SDS011;10380;52.102;20.614;2023-04-16T10:00:05;6.07;;;4.70;;
20441;SDS011;10380;52.102;20.614;2023-04-16T10:02:34;6.18;;;4.88;;
20441;SDS011;10380;52.102;20.614;2023-04-16T10:05:05;6.45;;;5.05;;
20441;SDS011;10380;52.102;20.614;2023-04-16T10:07:33;5.20;;;4.70;;
20441;SDS011;10380;52.102;20.614;2023-04-16T10:10:02;5.35;;;4.85;;
20441;SDS011;10380;52.102;20.614;2023-04-16T10:12:30;5.22;;;4.78;;
20441;SDS011;10380;52.102;20.614;2023-04-16T10:14:58;5.47;;;4.97;;
20441;SDS011;10380;52.102;20.614;2023-04-16T10:17:25;6.35;;;4.78;;
20441;SDS011;10380;52.102;20.614;2023-04-16T10:19:55;6.97;;;5.13;;
20441;SDS011;10380;52.102;20.614;2023-04-16T10:22:23;5.90;;;4.85;;
20441;SDS011;10380;52.102;20.614;2023-04-16T10:24:50;6.18;;;4.93;;
20441;SDS011;10380;52.102;20.614;2023-04-16T10:27:18;7.43;;;4.95;;
20441;SDS011;10380;52.102;20.614;2023-04-16T10:29:46;6.32;;;4.85;;
20441;SDS011;10380;52.102;20.614;2023-04-16T10:32:14;5.78;;;4.90;;
20441;SDS011;10380;52.102;20.614;2023-04-16T10:34:43;5.38;;;4.80;;
20441;SDS011;10380;52.102;20.614;2023-04-16T10:37:10;5.85;;;4.55;;
20441;SDS011;10380;52.102;20.614;2023-04-16T10:39:37;5.25;;;4.72;;
20441;SDS011;10380;52.102;20.614;2023-04-16T10:42:08;4.82;;;4.43;;
20441;SDS011;10380;52.102;20.614;2023-04-16T10:44:37;4.75;;;4.00;;
20441;SDS011;10380;52.102;20.614;2023-04-16T10:47:10;4.45;;;4.05;;
20441;SDS011;10380;52.102;20.614;2023-04-16T10:49:38;5.10;;;4.60;;
20441;SDS011;10380;52.102;20.614;2023-04-16T10:52:07;4.40;;;4.00;;
20441;SDS011;10380;52.102;20.614;2023-04-16T10:54:40;5.45;;;4.10;;
20441;SDS011;10380;52.102;20.614;2023-04-16T10:57:07;5.05;;;4.22;;
20441;SDS011;10380;52.102;20.614;2023-04-16T10:59:36;5.07;;;4.55;;
20441;SDS011;10380;52.102;20.614;2023-04-16T11:02:08;5.00;;;4.22;;
20441;SDS011;10380;52.102;20.614;2023-04-16T11:04:42;6.28;;;5.32;;
20441;SDS011;10380;52.102;20.614;2023-04-16T11:09:44;5.50;;;4.57;;
20441;SDS011;10380;52.102;20.614;2023-04-16T11:12:25;5.55;;;4.47;;
20441;SDS011;10380;52.102;20.614;2023-04-16T11:15:16;4.60;;;4.20;;
20441;SDS011;10380;52.102;20.614;2023-04-16T11:17:48;6.30;;;4.57;;
20441;SDS011;10380;52.102;20.614;2023-04-16T11:20:24;7.80;;;4.40;;
20441;SDS011;10380;52.102;20.614;2023-04-16T11:22:52;7.13;;;5.95;;
20441;SDS011;10380;52.102;20.614;2023-04-16T11:25:24;6.68;;;4.72;;
20441;SDS011;10380;52.102;20.614;2023-04-16T11:27:54;5.80;;;5.00;;
20441;SDS011;10380;52.102;20.614;2023-04-16T11:30:33;5.15;;;4.53;;
20441;SDS011;10380;52.102;20.614;2023-04-16T11:33:02;5.90;;;5.35;;
20441;SDS011;10380;52.102;20.614;2023-04-16T11:35:38;5.28;;;4.78;;
20441;SDS011;10380;52.102;20.614;2023-04-16T11:38:05;4.68;;;4.28;;
20441;SDS011;10380;52.102;20.614;2023-04-16T11:40:33;6.70;;;4.85;;
20441;SDS011;10380;52.102;20.614;2023-04-16T11:43:00;5.78;;;5.25;;
20441;SDS011;10380;52.102;20.614;2023-04-16T11:45:29;7.15;;;6.45;;
20441;SDS011;10380;52.102;20.614;2023-04-16T11:47:56;8.45;;;5.97;;
20441;SDS011;10380;52.102;20.614;2023-04-16T11:50:23;6.28;;;5.68;;
20441;SDS011;10380;52.102;20.614;2023-04-16T11:52:52;7.57;;;6.50;;
20441;SDS011;10380;52.102;20.614;2023-04-16T11:55:21;6.50;;;5.20;;
20441;SDS011;10380;52.102;20.614;2023-04-16T11:57:48;6.70;;;5.28;;
20441;SDS011;10380;52.102;20.614;2023-04-16T12:00:18;7.82;;;6.63;;
20441;SDS011;10380;52.102;20.614;2023-04-16T12:02:50;6.97;;;6.32;;
20441;SDS011;10380;52.102;20.614;2023-04-16T12:05:25;5.65;;;5.15;;
20441;SDS011;10380;52.102;20.614;2023-04-16T12:07:57;6.18;;;5.35;;
20441;SDS011;10380;52.102;20.614;2023-04-16T12:10:24;5.68;;;5.18;;
20441;SDS011;10380;52.102;20.614;2023-04-16T12:12:52;6.10;;;5.50;;
20441;SDS011;10380;52.102;20.614;2023-04-16T12:15:19;5.05;;;4.63;;
20441;SDS011;10380;52.102;20.614;2023-04-16T12:17:46;5.65;;;5.10;;
20441;SDS011;10380;52.102;20.614;2023-04-16T12:20:14;6.50;;;5.13;;
20441;SDS011;10380;52.102;20.614;2023-04-16T12:22:45;5.85;;;5.25;;
20441;SDS011;10380;52.102;20.614;2023-04-16T12:25:13;5.78;;;5.05;;
20441;SDS011;10380;52.102;20.614;2023-04-16T12:30:20;5.85;;;5.00;;
20441;SDS011;10380;52.102;20.614;2023-04-16T12:32:49;5.15;;;4.68;;
20441;SDS011;10380;52.102;20.614;2023-04-16T12:35:35;5.50;;;5.00;;
20441;SDS011;10380;52.102;20.614;2023-04-16T12:38:02;5.80;;;5.05;;
20441;SDS011;10380;52.102;20.614;2023-04-16T12:40:29;6.00;;;5.40;;
20441;SDS011;10380;52.102;20.614;2023-04-16T12:42:56;5.57;;;5.07;;
20441;SDS011;10380;52.102;20.614;2023-04-16T12:45:23;5.05;;;4.63;;
20441;SDS011;10380;52.102;20.614;2023-04-16T12:47:50;6.25;;;5.20;;
20441;SDS011;10380;52.102;20.614;2023-04-16T12:50:16;4.63;;;4.22;;
20441;SDS011;10380;52.102;20.614;2023-04-16T12:52:43;4.53;;;4.13;;
20441;SDS011;10380;52.102;20.614;2023-04-16T12:55:10;5.07;;;4.68;;
20441;SDS011;10380;52.102;20.614;2023-04-16T12:57:37;5.13;;;4.63;;
20441;SDS011;10380;52.102;20.614;2023-04-16T13:00:04;5.47;;;4.82;;
20441;SDS011;10380;52.102;20.614;2023-04-16T13:02:33;6.15;;;5.55;;
20441;SDS011;10380;52.102;20.614;2023-04-16T13:05:00;7.35;;;5.90;;
20441;SDS011;10380;52.102;20.614;2023-04-16T13:07:27;7.47;;;6.38;;
20441;SDS011;10380;52.102;20.614;2023-04-16T13:09:56;6.28;;;5.68;;
20441;SDS011;10380;52.102;20.614;2023-04-16T13:12:23;6.90;;;6.20;;
20441;SDS011;10380;52.102;20.614;2023-04-16T13:14:50;7.13;;;6.45;;
20441;SDS011;10380;52.102;20.614;2023-04-16T13:17:17;8.32;;;7.15;;
20441;SDS011;10380;52.102;20.614;2023-04-16T13:19:44;7.05;;;6.35;;
20441;SDS011;10380;52.102;20.614;2023-04-16T13:22:10;8.23;;;7.45;;
20441;SDS011;10380;52.102;20.614;2023-04-16T13:24:38;7.38;;;6.57;;
20441;SDS011;10380;52.102;20.614;2023-04-16T13:27:04;7.20;;;6.45;;
20441;SDS011;10380;52.102;20.614;2023-04-16T13:29:33;8.02;;;6.65;;
20441;SDS011;10380;52.102;20.614;2023-04-16T13:32:03;6.38;;;5.78;;
20441;SDS011;10380;52.102;20.614;2023-04-16T13:34:30;9.13;;;7.30;;
20441;SDS011;10380;52.102;20.614;2023-04-16T13:36:57;7.82;;;6.03;;
20441;SDS011;10380;52.102;20.614;2023-04-16T13:39:24;7.10;;;6.40;;
20441;SDS011;10380;52.102;20.614;2023-04-16T13:41:51;6.63;;;6.03;;
20441;SDS011;10380;52.102;20.614;2023-04-16T13:44:18;7.15;;;6.10;;
20441;SDS011;10380;52.102;20.614;2023-04-16T13:46:46;7.30;;;6.65;;
20441;SDS011;10380;52.102;20.614;2023-04-16T13:49:16;8.88;;;6.85;;
20441;SDS011;10380;52.102;20.614;2023-04-16T13:51:43;7.43;;;6.68;;
20441;SDS011;10380;52.102;20.614;2023-04-16T13:54:10;7.68;;;6.97;;
20441;SDS011;10380;52.102;20.614;2023-04-16T13:56:39;8.30;;;7.50;;
20441;SDS011;10380;52.102;20.614;2023-04-16T13:59:09;8.00;;;7.15;;
20441;SDS011;10380;52.102;20.614;2023-04-16T14:01:44;8.65;;;7.75;;
20441;SDS011;10380;52.102;20.614;2023-04-16T14:04:11;8.18;;;7.47;;
20441;SDS011;10380;52.102;20.614;2023-04-16T14:06:38;8.70;;;7.47;;
20441;SDS011;10380;52.102;20.614;2023-04-16T14:09:08;8.18;;;7.47;;
20441;SDS011;10380;52.102;20.614;2023-04-16T14:11:36;8.98;;;8.07;;
20441;SDS011;10380;52.102;20.614;2023-04-16T14:14:04;8.10;;;7.30;;
20441;SDS011;10380;52.102;20.614;2023-04-16T14:16:35;9.20;;;8.10;;
20441;SDS011;10380;52.102;20.614;2023-04-16T14:19:03;9.27;;;8.35;;
20441;SDS011;10380;52.102;20.614;2023-04-16T14:21:30;9.20;;;8.30;;
20441;SDS011;10380;52.102;20.614;2023-04-16T14:23:57;30.88;;;24.00;;
20441;SDS011;10380;52.102;20.614;2023-04-16T14:26:24;13.82;;;12.23;;
20441;SDS011;10380;52.102;20.614;2023-04-16T14:28:51;10.85;;;9.77;;
20441;SDS011;10380;52.102;20.614;2023-04-16T14:31:18;10.57;;;8.70;;
20441;SDS011;10380;52.102;20.614;2023-04-16T14:33:46;8.52;;;7.72;;
20441;SDS011;10380;52.102;20.614;2023-04-16T14:36:14;8.13;;;7.32;;
20441;SDS011;10380;52.102;20.614;2023-04-16T14:38:40;9.32;;;8.43;;
20441;SDS011;10380;52.102;20.614;2023-04-16T14:41:11;8.40;;;7.45;;